Terminal Aerodrome Forecast
Issued by NWS Denver/Boulder, CO

Home | Current Version | Previous Version | Text Only | Print | Product List | Glossary On
Versions: 1 2 3 4 5 6 7 8 9 10 11 12 13 14 15 16 17 18 19 20 21 22 23 24 25 26 27 28 29 30 31 32 33 34 35
000
FTUS45 KBOU 230530
TAFDEN
TAF
KDEN 230530Z 2306/2412 17012KT P6SM FEW100 SCT140 OVC180
     FM230700 20012KT P6SM SCT100 OVC140
     FM231400 24012KT P6SM BKN080 OVC150
     FM231900 24012G22KT P6SM BKN080 OVC120
     FM240200 22012KT P6SM SCT100 BKN150
     FM240600 25009KT P6SM SCT070 BKN120=

USA.gov is the U.S. government's official web portal to all federal, state and local government web resources and services.